sensor_id;sensor_type;location;lat;lon;timestamp;temperature;humidity
32476;DHT22;18929;48.008;10.882;2023-02-01T00:02:17;3.30;99.90
32476;DHT22;18929;48.008;10.882;2023-02-01T00:04:44;3.50;99.90
32476;DHT22;18929;48.008;10.882;2023-02-01T00:07:11;3.60;99.90
32476;DHT22;18929;48.008;10.882;2023-02-01T00:09:37;3.70;99.90
32476;DHT22;18929;48.008;10.882;2023-02-01T00:12:04;3.60;99.90
32476;DHT22;18929;48.008;10.882;2023-02-01T00:14:31;3.50;99.90
32476;DHT22;18929;48.008;10.882;2023-02-01T00:17:05;3.50;99.90
32476;DHT22;18929;48.008;10.882;2023-02-01T00:19:32;3.30;99.90
32476;DHT22;18929;48.008;10.882;2023-02-01T00:21:59;3.30;99.90
32476;DHT22;18929;48.008;10.882;2023-02-01T00:24:26;3.30;99.90
32476;DHT22;18929;48.008;10.882;2023-02-01T00:26:53;3.40;99.90
32476;DHT22;18929;48.008;10.882;2023-02-01T00:29:21;3.60;99.90
32476;DHT22;18929;48.008;10.882;2023-02-01T00:31:49;3.60;99.90
32476;DHT22;18929;48.008;10.882;2023-02-01T00:34:18;3.60;99.90
32476;DHT22;18929;48.008;10.882;2023-02-01T00:36:45;3.60;99.90
32476;DHT22;18929;48.008;10.882;2023-02-01T00:39:12;3.40;99.90
32476;DHT22;18929;48.008;10.882;2023-02-01T00:41:39;3.50;99.90
32476;DHT22;18929;48.008;10.882;2023-02-01T00:44:06;3.40;99.90
32476;DHT22;18929;48.008;10.882;2023-02-01T00:46:33;3.50;99.90
32476;DHT22;18929;48.008;10.882;2023-02-01T00:48:59;3.60;99.90
32476;DHT22;18929;48.008;10.882;2023-02-01T00:51:28;3.50;99.90
32476;DHT22;18929;48.008;10.882;2023-02-01T00:53:55;3.60;99.90
32476;DHT22;18929;48.008;10.882;2023-02-01T00:56:22;3.40;99.90
32476;DHT22;18929;48.008;10.882;2023-02-01T00:58:49;3.50;99.90
32476;DHT22;18929;48.008;10.882;2023-02-01T01:01:17;3.60;99.90
32476;DHT22;18929;48.008;10.882;2023-02-01T01:03:45;3.50;99.90
32476;DHT22;18929;48.008;10.882;2023-02-01T01:06:13;3.30;99.90
32476;DHT22;18929;48.008;10.882;2023-02-01T01:08:42;3.50;99.90
32476;DHT22;18929;48.008;10.882;2023-02-01T01:11:10;3.60;99.90
32476;DHT22;18929;48.008;10.882;2023-02-01T01:13:37;3.50;99.90
32476;DHT22;18929;48.008;10.882;2023-02-01T01:16:05;3.20;99.90
32476;DHT22;18929;48.008;10.882;2023-02-01T01:18:32;3.50;99.90
32476;DHT22;18929;48.008;10.882;2023-02-01T01:20:59;3.60;99.90
32476;DHT22;18929;48.008;10.882;2023-02-01T01:23:26;3.60;99.90
32476;DHT22;18929;48.008;10.882;2023-02-01T01:25:55;3.40;99.90
32476;DHT22;18929;48.008;10.882;2023-02-01T01:28:21;3.30;99.90
32476;DHT22;18929;48.008;10.882;2023-02-01T01:30:48;3.30;99.90
32476;DHT22;18929;48.008;10.882;2023-02-01T01:33:15;3.30;99.90
32476;DHT22;18929;48.008;10.882;2023-02-01T01:35:42;3.40;99.90
32476;DHT22;18929;48.008;10.882;2023-02-01T01:38:09;3.40;99.90
32476;DHT22;18929;48.008;10.882;2023-02-01T01:40:37;3.40;99.90
32476;DHT22;18929;48.008;10.882;2023-02-01T01:43:08;3.10;99.90
32476;DHT22;18929;48.008;10.882;2023-02-01T01:45:39;3.00;99.90
32476;DHT22;18929;48.008;10.882;2023-02-01T01:48:07;3.10;99.90
32476;DHT22;18929;48.008;10.882;2023-02-01T01:50:36;3.00;99.90
32476;DHT22;18929;48.008;10.882;2023-02-01T01:53:06;3.20;99.90
32476;DHT22;18929;48.008;10.882;2023-02-01T01:55:35;3.30;99.90
32476;DHT22;18929;48.008;10.882;2023-02-01T01:58:04;3.30;99.90
32476;DHT22;18929;48.008;10.882;2023-02-01T02:00:32;3.20;99.90
32476;DHT22;18929;48.008;10.882;2023-02-01T02:03:00;3.20;99.90
32476;DHT22;18929;48.008;10.882;2023-02-01T02:05:28;3.00;99.90
32476;DHT22;18929;48.008;10.882;2023-02-01T02:07:56;3.10;99.90
32476;DHT22;18929;48.008;10.882;2023-02-01T02:10:24;3.10;99.90
32476;DHT22;18929;48.008;10.882;2023-02-01T02:13:11;3.20;99.90
32476;DHT22;18929;48.008;10.882;2023-02-01T02:15:41;3.10;99.90
32476;DHT22;18929;48.008;10.882;2023-02-01T02:18:10;3.20;99.90
32476;DHT22;18929;48.008;10.882;2023-02-01T02:20:48;3.00;99.90
32476;DHT22;18929;48.008;10.882;2023-02-01T02:26:22;2.90;99.90
32476;DHT22;18929;48.008;10.882;2023-02-01T02:34:37;3.00;99.90
32476;DHT22;18929;48.008;10.882;2023-02-01T02:37:08;3.10;99.90
32476;DHT22;18929;48.008;10.882;2023-02-01T02:39:40;3.10;99.90
32476;DHT22;18929;48.008;10.882;2023-02-01T02:42:12;3.00;99.90
32476;DHT22;18929;48.008;10.882;2023-02-01T02:44:59;2.90;99.90
32476;DHT22;18929;48.008;10.882;2023-02-01T02:47:47;2.90;99.90
32476;DHT22;18929;48.008;10.882;2023-02-01T02:50:20;3.00;99.90
32476;DHT22;18929;48.008;10.882;2023-02-01T02:53:09;3.20;99.90
32476;DHT22;18929;48.008;10.882;2023-02-01T02:55:54;3.10;99.90
32476;DHT22;18929;48.008;10.882;2023-02-01T02:58:40;3.20;99.90
32476;DHT22;18929;48.008;10.882;2023-02-01T03:01:25;3.10;99.90
32476;DHT22;18929;48.008;10.882;2023-02-01T03:04:09;3.30;99.90
32476;DHT22;18929;48.008;10.882;2023-02-01T03:06:44;3.10;99.90
32476;DHT22;18929;48.008;10.882;2023-02-01T03:09:13;3.10;99.90
32476;DHT22;18929;48.008;10.882;2023-02-01T03:11:41;3.10;99.90
32476;DHT22;18929;48.008;10.882;2023-02-01T03:14:28;3.10;99.90
32476;DHT22;18929;48.008;10.882;2023-02-01T03:16:58;3.10;99.90
32476;DHT22;18929;48.008;10.882;2023-02-01T03:19:27;3.00;99.90
32476;DHT22;18929;48.008;10.882;2023-02-01T03:21:58;3.00;99.90
32476;DHT22;18929;48.008;10.882;2023-02-01T03:24:29;3.30;99.90
32476;DHT22;18929;48.008;10.882;2023-02-01T03:27:01;3.40;99.90
32476;DHT22;18929;48.008;10.882;2023-02-01T03:29:29;3.10;99.90
32476;DHT22;18929;48.008;10.882;2023-02-01T03:31:57;3.20;99.90
32476;DHT22;18929;48.008;10.882;2023-02-01T03:34:24;3.00;99.90
32476;DHT22;18929;48.008;10.882;2023-02-01T03:36:52;3.10;99.90
32476;DHT22;18929;48.008;10.882;2023-02-01T03:39:24;3.00;99.90
32476;DHT22;18929;48.008;10.882;2023-02-01T03:41:53;3.10;99.90
32476;DHT22;18929;48.008;10.882;2023-02-01T03:44:20;3.20;99.90
32476;DHT22;18929;48.008;10.882;2023-02-01T03:46:49;3.20;99.90
32476;DHT22;18929;48.008;10.882;2023-02-01T03:49:18;3.30;99.90
32476;DHT22;18929;48.008;10.882;2023-02-01T03:51:46;3.00;99.90
32476;DHT22;18929;48.008;10.882;2023-02-01T03:54:14;3.10;99.90
32476;DHT22;18929;48.008;10.882;2023-02-01T03:56:43;3.00;99.90
32476;DHT22;18929;48.008;10.882;2023-02-01T03:59:11;2.90;99.90
32476;DHT22;18929;48.008;10.882;2023-02-01T04:01:37;2.80;99.90
32476;DHT22;18929;48.008;10.882;2023-02-01T04:04:04;3.10;99.90
32476;DHT22;18929;48.008;10.882;2023-02-01T04:06:31;3.00;99.90
32476;DHT22;18929;48.008;10.882;2023-02-01T04:08:58;3.10;99.90
32476;DHT22;18929;48.008;10.882;2023-02-01T04:11:25;3.30;99.90
32476;DHT22;18929;48.008;10.882;2023-02-01T04:13:54;3.50;99.90
32476;DHT22;18929;48.008;10.882;2023-02-01T04:16:20;3.30;99.90
32476;DHT22;18929;48.008;10.882;2023-02-01T04:18:47;3.10;99.90
32476;DHT22;18929;48.008;10.882;2023-02-01T04:21:14;3.10;99.90
32476;DHT22;18929;48.008;10.882;2023-02-01T04:23:41;3.20;99.90
32476;DHT22;18929;48.008;10.882;2023-02-01T04:26:08;3.40;99.90
32476;DHT22;18929;48.008;10.882;2023-02-01T04:28:35;3.30;99.90
32476;DHT22;18929;48.008;10.882;2023-02-01T04:31:03;3.00;99.90
32476;DHT22;18929;48.008;10.882;2023-02-01T04:33:30;3.00;99.90
32476;DHT22;18929;48.008;10.882;2023-02-01T04:35:57;2.90;99.90
32476;DHT22;18929;48.008;10.882;2023-02-01T04:38:24;2.80;99.90
32476;DHT22;18929;48.008;10.882;2023-02-01T04:40:50;3.10;99.90
32476;DHT22;18929;48.008;10.882;2023-02-01T04:43:17;3.30;99.90
32476;DHT22;18929;48.008;10.882;2023-02-01T04:45:47;3.00;99.90
32476;DHT22;18929;48.008;10.882;2023-02-01T04:48:16;3.00;99.90
32476;DHT22;18929;48.008;10.882;2023-02-01T04:50:43;3.10;99.90
32476;DHT22;18929;48.008;10.882;2023-02-01T04:53:12;3.00;99.90
32476;DHT22;18929;48.008;10.882;2023-02-01T04:55:39;3.00;99.90
32476;DHT22;18929;48.008;10.882;2023-02-01T04:58:06;2.90;99.90
32476;DHT22;18929;48.008;10.882;2023-02-01T05:00:33;3.00;99.90
32476;DHT22;18929;48.008;10.882;2023-02-01T05:02:59;3.00;99.90
32476;DHT22;18929;48.008;10.882;2023-02-01T05:05:28;3.00;99.90
32476;DHT22;18929;48.008;10.882;2023-02-01T05:07:55;2.90;99.90
32476;DHT22;18929;48.008;10.882;2023-02-01T05:10:22;2.80;99.90
32476;DHT22;18929;48.008;10.882;2023-02-01T05:12:49;2.90;99.90
32476;DHT22;18929;48.008;10.882;2023-02-01T05:15:33;2.90;99.90
32476;DHT22;18929;48.008;10.882;2023-02-01T05:17:59;2.80;99.90
32476;DHT22;18929;48.008;10.882;2023-02-01T05:20:27;2.80;99.90
32476;DHT22;18929;48.008;10.882;2023-02-01T05:22:54;3.10;99.90
32476;DHT22;18929;48.008;10.882;2023-02-01T05:25:21;3.10;99.90
32476;DHT22;18929;48.008;10.882;2023-02-01T05:27:48;3.00;99.90
32476;DHT22;18929;48.008;10.882;2023-02-01T05:30:15;3.00;99.90
32476;DHT22;18929;48.008;10.882;2023-02-01T05:32:42;3.10;99.90
32476;DHT22;18929;48.008;10.882;2023-02-01T05:35:09;3.10;99.90
32476;DHT22;18929;48.008;10.882;2023-02-01T05:37:37;2.90;99.90
32476;DHT22;18929;48.008;10.882;2023-02-01T05:40:04;2.90;99.90
32476;DHT22;18929;48.008;10.882;2023-02-01T05:42:31;2.90;99.90
32476;DHT22;18929;48.008;10.882;2023-02-01T05:44:58;2.90;99.90
32476;DHT22;18929;48.008;10.882;2023-02-01T05:47:25;3.00;99.90
32476;DHT22;18929;48.008;10.882;2023-02-01T05:49:51;2.90;99.90
32476;DHT22;18929;48.008;10.882;2023-02-01T05:52:18;3.10;99.90
32476;DHT22;18929;48.008;10.882;2023-02-01T05:54:46;3.10;99.90
32476;DHT22;18929;48.008;10.882;2023-02-01T05:57:14;3.10;99.90
32476;DHT22;18929;48.008;10.882;2023-02-01T05:59:41;3.10;99.90
32476;DHT22;18929;48.008;10.882;2023-02-01T06:02:10;3.00;99.90
32476;DHT22;18929;48.008;10.882;2023-02-01T06:04:36;3.00;99.90
32476;DHT22;18929;48.008;10.882;2023-02-01T06:07:03;3.10;99.90
32476;DHT22;18929;48.008;10.882;2023-02-01T06:09:31;3.30;99.90
32476;DHT22;18929;48.008;10.882;2023-02-01T06:11:59;3.10;99.90
32476;DHT22;18929;48.008;10.882;2023-02-01T06:14:26;3.20;99.90
32476;DHT22;18929;48.008;10.882;2023-02-01T06:16:53;2.90;99.90
32476;DHT22;18929;48.008;10.882;2023-02-01T06:19:20;3.00;99.90
32476;DHT22;18929;48.008;10.882;2023-02-01T06:21:47;2.80;99.90
32476;DHT22;18929;48.008;10.882;2023-02-01T06:24:15;3.00;99.90
32476;DHT22;18929;48.008;10.882;2023-02-01T06:26:42;3.00;99.90
32476;DHT22;18929;48.008;10.882;2023-02-01T06:29:10;3.00;99.90
32476;DHT22;18929;48.008;10.882;2023-02-01T06:31:37;3.00;99.90
32476;DHT22;18929;48.008;10.882;2023-02-01T06:34:05;2.90;99.90
32476;DHT22;18929;48.008;10.882;2023-02-01T06:36:32;3.10;99.90
32476;DHT22;18929;48.008;10.882;2023-02-01T06:38:58;3.10;99.90
32476;DHT22;18929;48.008;10.882;2023-02-01T06:41:25;3.00;99.90
32476;DHT22;18929;48.008;10.882;2023-02-01T06:43:52;3.00;99.90
32476;DHT22;18929;48.008;10.882;2023-02-01T06:46:20;3.00;99.90
32476;DHT22;18929;48.008;10.882;2023-02-01T06:48:47;3.10;99.90
32476;DHT22;18929;48.008;10.882;2023-02-01T06:51:17;2.90;99.90
32476;DHT22;18929;48.008;10.882;2023-02-01T06:53:45;2.80;99.90
32476;DHT22;18929;48.008;10.882;2023-02-01T06:56:11;2.80;99.90
32476;DHT22;18929;48.008;10.882;2023-02-01T06:58:38;2.90;99.90
32476;DHT22;18929;48.008;10.882;2023-02-01T07:01:05;2.90;99.90
32476;DHT22;18929;48.008;10.882;2023-02-01T07:03:34;2.70;99.90
32476;DHT22;18929;48.008;10.882;2023-02-01T07:06:01;2.80;99.90
32476;DHT22;18929;48.008;10.882;2023-02-01T07:08:28;2.80;99.90
32476;DHT22;18929;48.008;10.882;2023-02-01T07:10:55;2.60;99.90
32476;DHT22;18929;48.008;10.882;2023-02-01T07:13:22;2.70;99.90
32476;DHT22;18929;48.008;10.882;2023-02-01T07:15:49;2.90;99.90
32476;DHT22;18929;48.008;10.882;2023-02-01T07:18:16;3.00;99.90
32476;DHT22;18929;48.008;10.882;2023-02-01T07:20:46;2.90;99.90
32476;DHT22;18929;48.008;10.882;2023-02-01T07:23:15;2.70;99.90
32476;DHT22;18929;48.008;10.882;2023-02-01T07:25:42;2.70;99.90
32476;DHT22;18929;48.008;10.882;2023-02-01T07:28:09;2.70;99.90
32476;DHT22;18929;48.008;10.882;2023-02-01T07:30:36;2.90;99.90
32476;DHT22;18929;48.008;10.882;2023-02-01T07:33:03;3.00;99.90
32476;DHT22;18929;48.008;10.882;2023-02-01T07:35:29;3.00;99.90
32476;DHT22;18929;48.008;10.882;2023-02-01T07:37:58;2.90;99.90
32476;DHT22;18929;48.008;10.882;2023-02-01T07:40:25;3.00;99.90
32476;DHT22;18929;48.008;10.882;2023-02-01T07:42:54;3.10;99.90
32476;DHT22;18929;48.008;10.882;2023-02-01T07:45:21;3.10;99.90
32476;DHT22;18929;48.008;10.882;2023-02-01T07:47:47;3.00;99.90
32476;DHT22;18929;48.008;10.882;2023-02-01T07:50:15;3.10;99.90
32476;DHT22;18929;48.008;10.882;2023-02-01T07:52:42;2.80;99.90
32476;DHT22;18929;48.008;10.882;2023-02-01T07:55:11;2.80;99.90
32476;DHT22;18929;48.008;10.882;2023-02-01T07:57:38;2.90;99.90
32476;DHT22;18929;48.008;10.882;2023-02-01T08:00:05;2.80;99.90
32476;DHT22;18929;48.008;10.882;2023-02-01T08:02:50;2.70;99.90
32476;DHT22;18929;48.008;10.882;2023-02-01T08:05:17;2.70;99.90
32476;DHT22;18929;48.008;10.882;2023-02-01T08:07:43;2.90;99.90
32476;DHT22;18929;48.008;10.882;2023-02-01T08:10:12;2.80;99.90
32476;DHT22;18929;48.008;10.882;2023-02-01T08:12:39;2.90;99.90
32476;DHT22;18929;48.008;10.882;2023-02-01T08:15:06;2.90;99.90
32476;DHT22;18929;48.008;10.882;2023-02-01T08:17:33;3.10;99.90
32476;DHT22;18929;48.008;10.882;2023-02-01T08:20:00;3.10;99.90
32476;DHT22;18929;48.008;10.882;2023-02-01T08:22:30;3.00;99.90
32476;DHT22;18929;48.008;10.882;2023-02-01T08:24:57;2.90;99.90
32476;DHT22;18929;48.008;10.882;2023-02-01T08:27:28;3.20;99.90
32476;DHT22;18929;48.008;10.882;2023-02-01T08:29:54;3.30;99.90
32476;DHT22;18929;48.008;10.882;2023-02-01T08:32:22;3.40;99.90
32476;DHT22;18929;48.008;10.882;2023-02-01T08:34:49;3.30;99.90
32476;DHT22;18929;48.008;10.882;2023-02-01T08:37:15;3.20;99.90
32476;DHT22;18929;48.008;10.882;2023-02-01T08:39:42;3.20;99.90
32476;DHT22;18929;48.008;10.882;2023-02-01T08:42:10;3.00;99.90
32476;DHT22;18929;48.008;10.882;2023-02-01T08:44:55;3.30;99.90
32476;DHT22;18929;48.008;10.882;2023-02-01T08:47:22;3.10;99.90
32476;DHT22;18929;48.008;10.882;2023-02-01T08:49:49;3.10;99.90
32476;DHT22;18929;48.008;10.882;2023-02-01T08:52:17;2.90;99.90
32476;DHT22;18929;48.008;10.882;2023-02-01T08:54:43;3.20;99.90
32476;DHT22;18929;48.008;10.882;2023-02-01T08:57:10;3.00;99.90
32476;DHT22;18929;48.008;10.882;2023-02-01T08:59:37;2.80;99.90
32476;DHT22;18929;48.008;10.882;2023-02-01T09:02:05;3.10;99.90
32476;DHT22;18929;48.008;10.882;2023-02-01T09:04:32;3.10;99.90
32476;DHT22;18929;48.008;10.882;2023-02-01T09:07:00;3.00;99.90
32476;DHT22;18929;48.008;10.882;2023-02-01T09:09:27;3.10;99.90
32476;DHT22;18929;48.008;10.882;2023-02-01T09:11:54;3.10;99.90
32476;DHT22;18929;48.008;10.882;2023-02-01T09:14:20;3.10;99.90
32476;DHT22;18929;48.008;10.882;2023-02-01T09:16:47;3.20;99.90
32476;DHT22;18929;48.008;10.882;2023-02-01T09:19:16;3.20;99.90
32476;DHT22;18929;48.008;10.882;2023-02-01T09:21:43;3.20;99.90
32476;DHT22;18929;48.008;10.882;2023-02-01T09:24:10;3.30;99.90
32476;DHT22;18929;48.008;10.882;2023-02-01T09:26:37;3.30;99.90
32476;DHT22;18929;48.008;10.882;2023-02-01T09:29:03;3.30;99.90
32476;DHT22;18929;48.008;10.882;2023-02-01T09:31:31;3.20;99.90
32476;DHT22;18929;48.008;10.882;2023-02-01T09:33:58;3.10;99.90
32476;DHT22;18929;48.008;10.882;2023-02-01T09:36:26;3.30;99.90
32476;DHT22;18929;48.008;10.882;2023-02-01T09:38:53;3.30;99.90
32476;DHT22;18929;48.008;10.882;2023-02-01T09:41:25;3.60;99.90
32476;DHT22;18929;48.008;10.882;2023-02-01T09:43:55;3.40;99.90
32476;DHT22;18929;48.008;10.882;2023-02-01T09:46:26;3.30;99.90
32476;DHT22;18929;48.008;10.882;2023-02-01T09:48:54;3.40;99.90
32476;DHT22;18929;48.008;10.882;2023-02-01T09:51:23;3.20;99.90
32476;DHT22;18929;48.008;10.882;2023-02-01T09:53:55;3.20;99.90
32476;DHT22;18929;48.008;10.882;2023-02-01T09:56:26;3.10;99.90
32476;DHT22;18929;48.008;10.882;2023-02-01T09:58:58;3.40;99.90
32476;DHT22;18929;48.008;10.882;2023-02-01T10:01:27;3.50;99.90
32476;DHT22;18929;48.008;10.882;2023-02-01T10:03:56;3.20;99.90
32476;DHT22;18929;48.008;10.882;2023-02-01T10:06:33;3.10;99.90
32476;DHT22;18929;48.008;10.882;2023-02-01T10:09:14;3.20;99.90
32476;DHT22;18929;48.008;10.882;2023-02-01T10:11:46;3.10;99.90
32476;DHT22;18929;48.008;10.882;2023-02-01T10:14:29;3.40;99.90
32476;DHT22;18929;48.008;10.882;2023-02-01T10:17:01;3.20;99.90
32476;DHT22;18929;48.008;10.882;2023-02-01T10:19:33;3.40;99.90
32476;DHT22;18929;48.008;10.882;2023-02-01T10:22:04;3.30;99.90
32476;DHT22;18929;48.008;10.882;2023-02-01T10:24:36;3.60;99.90
32476;DHT22;18929;48.008;10.882;2023-02-01T10:27:08;3.40;99.90
32476;DHT22;18929;48.008;10.882;2023-02-01T10:29:39;3.30;99.90
32476;DHT22;18929;48.008;10.882;2023-02-01T10:32:13;3.30;99.90
32476;DHT22;18929;48.008;10.882;2023-02-01T10:34:41;3.50;99.90
32476;DHT22;18929;48.008;10.882;2023-02-01T10:37:12;3.40;99.90
32476;DHT22;18929;48.008;10.882;2023-02-01T10:39:45;3.60;99.90
32476;DHT22;18929;48.008;10.882;2023-02-01T10:42:13;3.40;99.90
32476;DHT22;18929;48.008;10.882;2023-02-01T10:44:42;3.70;99.90
32476;DHT22;18929;48.008;10.882;2023-02-01T10:47:10;3.20;99.90
32476;DHT22;18929;48.008;10.882;2023-02-01T10:49:38;3.60;99.90
32476;DHT22;18929;48.008;10.882;2023-02-01T10:52:10;3.80;99.90
32476;DHT22;18929;48.008;10.882;2023-02-01T10:54:38;3.70;99.90
32476;DHT22;18929;48.008;10.882;2023-02-01T10:57:08;3.70;99.90
32476;DHT22;18929;48.008;10.882;2023-02-01T10:59:35;3.60;99.90
32476;DHT22;18929;48.008;10.882;2023-02-01T11:02:05;3.40;99.90
32476;DHT22;18929;48.008;10.882;2023-02-01T11:04:39;3.20;99.90
32476;DHT22;18929;48.008;10.882;2023-02-01T11:07:07;3.40;99.90
32476;DHT22;18929;48.008;10.882;2023-02-01T11:09:37;3.70;99.90
32476;DHT22;18929;48.008;10.882;2023-02-01T11:12:20;3.60;99.90
32476;DHT22;18929;48.008;10.882;2023-02-01T11:14:47;3.80;99.90
32476;DHT22;18929;48.008;10.882;2023-02-01T11:17:24;3.60;99.90
32476;DHT22;18929;48.008;10.882;2023-02-01T11:19:56;3.50;99.90
32476;DHT22;18929;48.008;10.882;2023-02-01T11:22:24;3.40;99.90
32476;DHT22;18929;48.008;10.882;2023-02-01T11:24:52;3.50;99.90
32476;DHT22;18929;48.008;10.882;2023-02-01T11:27:21;3.70;99.90
32476;DHT22;18929;48.008;10.882;2023-02-01T11:29:49;3.80;99.90
32476;DHT22;18929;48.008;10.882;2023-02-01T11:32:17;3.90;99.90
32476;DHT22;18929;48.008;10.882;2023-02-01T11:34:45;3.70;99.90
32476;DHT22;18929;48.008;10.882;2023-02-01T11:37:14;3.60;99.90
32476;DHT22;18929;48.008;10.882;2023-02-01T11:39:43;3.70;99.90
32476;DHT22;18929;48.008;10.882;2023-02-01T11:42:21;3.60;99.90
32476;DHT22;18929;48.008;10.882;2023-02-01T11:44:48;3.70;99.90
32476;DHT22;18929;48.008;10.882;2023-02-01T11:47:22;3.60;99.90
32476;DHT22;18929;48.008;10.882;2023-02-01T11:49:50;3.90;99.90
32476;DHT22;18929;48.008;10.882;2023-02-01T11:52:18;3.50;99.90
32476;DHT22;18929;48.008;10.882;2023-02-01T11:54:54;3.60;99.90
32476;DHT22;18929;48.008;10.882;2023-02-01T11:57:34;3.60;99.90
32476;DHT22;18929;48.008;10.882;2023-02-01T12:00:08;3.50;99.90
32476;DHT22;18929;48.008;10.882;2023-02-01T12:02:55;3.60;99.90
32476;DHT22;18929;48.008;10.882;2023-02-01T12:05:27;3.90;99.90
32476;DHT22;18929;48.008;10.882;2023-02-01T12:07:59;3.70;99.90
32476;DHT22;18929;48.008;10.882;2023-02-01T12:10:32;3.50;99.90
32476;DHT22;18929;48.008;10.882;2023-02-01T12:13:05;3.60;99.90
32476;DHT22;18929;48.008;10.882;2023-02-01T12:15:41;3.40;99.90
32476;DHT22;18929;48.008;10.882;2023-02-01T12:18:26;3.50;99.90
32476;DHT22;18929;48.008;10.882;2023-02-01T12:21:03;3.50;99.90
32476;DHT22;18929;48.008;10.882;2023-02-01T12:23:34;3.60;99.90
32476;DHT22;18929;48.008;10.882;2023-02-01T12:26:11;3.70;99.90
32476;DHT22;18929;48.008;10.882;2023-02-01T12:31:34;3.70;99.90
32476;DHT22;18929;48.008;10.882;2023-02-01T12:34:11;3.60;99.90
32476;DHT22;18929;48.008;10.882;2023-02-01T12:36:46;3.60;99.90
32476;DHT22;18929;48.008;10.882;2023-02-01T12:39:19;3.80;99.90
32476;DHT22;18929;48.008;10.882;2023-02-01T12:41:50;3.80;99.90
32476;DHT22;18929;48.008;10.882;2023-02-01T12:44:27;3.50;99.90
32476;DHT22;18929;48.008;10.882;2023-02-01T12:46:58;3.60;99.90
32476;DHT22;18929;48.008;10.882;2023-02-01T12:49:29;3.50;99.90
32476;DHT22;18929;48.008;10.882;2023-02-01T12:51:58;3.50;99.90
32476;DHT22;18929;48.008;10.882;2023-02-01T12:54:28;3.60;99.90
32476;DHT22;18929;48.008;10.882;2023-02-01T12:56:57;3.80;99.90
32476;DHT22;18929;48.008;10.882;2023-02-01T12:59:28;3.70;99.90
32476;DHT22;18929;48.008;10.882;2023-02-01T13:01:59;3.70;99.90
32476;DHT22;18929;48.008;10.882;2023-02-01T13:04:29;3.90;99.90
32476;DHT22;18929;48.008;10.882;2023-02-01T13:07:00;3.80;99.90
32476;DHT22;18929;48.008;10.882;2023-02-01T13:09:29;4.00;99.90
32476;DHT22;18929;48.008;10.882;2023-02-01T13:11:58;3.90;99.90
32476;DHT22;18929;48.008;10.882;2023-02-01T13:14:28;4.00;99.90
32476;DHT22;18929;48.008;10.882;2023-02-01T13:16:59;4.10;99.90
32476;DHT22;18929;48.008;10.882;2023-02-01T13:19:27;4.10;99.90
32476;DHT22;18929;48.008;10.882;2023-02-01T13:21:56;3.90;99.90
32476;DHT22;18929;48.008;10.882;2023-02-01T13:24:27;3.80;99.90
32476;DHT22;18929;48.008;10.882;2023-02-01T13:26:56;3.80;99.90
32476;DHT22;18929;48.008;10.882;2023-02-01T13:29:23;3.80;99.90
32476;DHT22;18929;48.008;10.882;2023-02-01T13:32:02;3.90;99.90
32476;DHT22;18929;48.008;10.882;2023-02-01T13:34:38;4.00;99.90
32476;DHT22;18929;48.008;10.882;2023-02-01T13:37:12;3.90;99.90
32476;DHT22;18929;48.008;10.882;2023-02-01T13:39:50;3.80;99.90
32476;DHT22;18929;48.008;10.882;2023-02-01T13:42:20;3.60;99.90
32476;DHT22;18929;48.008;10.882;2023-02-01T13:44:49;3.60;99.90
32476;DHT22;18929;48.008;10.882;2023-02-01T13:47:25;3.60;99.90
32476;DHT22;18929;48.008;10.882;2023-02-01T13:49:53;3.60;99.90
32476;DHT22;18929;48.008;10.882;2023-02-01T13:52:25;3.70;99.90
32476;DHT22;18929;48.008;10.882;2023-02-01T13:55:03;3.50;99.90
32476;DHT22;18929;48.008;10.882;2023-02-01T13:57:40;3.70;99.90
32476;DHT22;18929;48.008;10.882;2023-02-01T14:00:20;3.70;99.90
32476;DHT22;18929;48.008;10.882;2023-02-01T14:02:59;4.00;99.90
32476;DHT22;18929;48.008;10.882;2023-02-01T14:08:14;4.00;99.90
32476;DHT22;18929;48.008;10.882;2023-02-01T14:10:47;3.80;99.90
32476;DHT22;18929;48.008;10.882;2023-02-01T14:13:22;4.00;99.90
32476;DHT22;18929;48.008;10.882;2023-02-01T14:16:10;3.90;99.90
32476;DHT22;18929;48.008;10.882;2023-02-01T14:21:33;3.80;99.90
32476;DHT22;18929;48.008;10.882;2023-02-01T14:24:04;3.60;99.90
32476;DHT22;18929;48.008;10.882;2023-02-01T14:26:41;3.80;99.90
32476;DHT22;18929;48.008;10.882;2023-02-01T14:29:20;3.90;99.90
32476;DHT22;18929;48.008;10.882;2023-02-01T14:31:51;4.00;99.90
32476;DHT22;18929;48.008;10.882;2023-02-01T14:34:21;4.00;99.90
32476;DHT22;18929;48.008;10.882;2023-02-01T14:36:55;4.10;99.90
32476;DHT22;18929;48.008;10.882;2023-02-01T14:39:30;4.60;99.90
32476;DHT22;18929;48.008;10.882;2023-02-01T14:41:58;4.80;99.90
32476;DHT22;18929;48.008;10.882;2023-02-01T14:44:33;5.20;99.90
32476;DHT22;18929;48.008;10.882;2023-02-01T14:47:05;5.20;99.90
32476;DHT22;18929;48.008;10.882;2023-02-01T14:49:32;4.80;99.90
32476;DHT22;18929;48.008;10.882;2023-02-01T14:52:01;5.20;99.90
32476;DHT22;18929;48.008;10.882;2023-02-01T14:54:29;5.40;99.90
32476;DHT22;18929;48.008;10.882;2023-02-01T14:56:55;5.30;99.90
32476;DHT22;18929;48.008;10.882;2023-02-01T14:59:24;5.60;99.90
32476;DHT22;18929;48.008;10.882;2023-02-01T15:01:52;5.50;99.90
32476;DHT22;18929;48.008;10.882;2023-02-01T15:04:20;5.50;99.90
32476;DHT22;18929;48.008;10.882;2023-02-01T15:06:48;5.30;99.90
32476;DHT22;18929;48.008;10.882;2023-02-01T15:09:18;5.00;99.90
32476;DHT22;18929;48.008;10.882;2023-02-01T15:11:59;5.30;99.90
32476;DHT22;18929;48.008;10.882;2023-02-01T15:14:27;5.40;99.90
32476;DHT22;18929;48.008;10.882;2023-02-01T15:16:54;5.30;99.90
32476;DHT22;18929;48.008;10.882;2023-02-01T15:19:22;5.40;99.90
32476;DHT22;18929;48.008;10.882;2023-02-01T15:21:49;5.00;99.90
32476;DHT22;18929;48.008;10.882;2023-02-01T15:24:22;5.30;99.90
32476;DHT22;18929;48.008;10.882;2023-02-01T15:26:49;5.10;99.90
32476;DHT22;18929;48.008;10.882;2023-02-01T15:29:17;4.70;99.90
32476;DHT22;18929;48.008;10.882;2023-02-01T15:31:45;4.90;99.90
32476;DHT22;18929;48.008;10.882;2023-02-01T15:34:12;4.80;99.90
32476;DHT22;18929;48.008;10.882;2023-02-01T15:36:39;5.10;99.90
32476;DHT22;18929;48.008;10.882;2023-02-01T15:39:13;5.10;99.90
32476;DHT22;18929;48.008;10.882;2023-02-01T15:41:45;5.00;99.90
32476;DHT22;18929;48.008;10.882;2023-02-01T15:44:14;5.00;99.90
32476;DHT22;18929;48.008;10.882;2023-02-01T15:46:44;5.00;99.90
32476;DHT22;18929;48.008;10.882;2023-02-01T15:49:17;4.80;99.90
32476;DHT22;18929;48.008;10.882;2023-02-01T15:51:45;4.70;99.90
32476;DHT22;18929;48.008;10.882;2023-02-01T15:54:14;5.00;99.90
32476;DHT22;18929;48.008;10.882;2023-02-01T15:56:48;5.10;99.90
32476;DHT22;18929;48.008;10.882;2023-02-01T15:59:17;5.00;99.90
32476;DHT22;18929;48.008;10.882;2023-02-01T16:01:58;5.00;99.90
32476;DHT22;18929;48.008;10.882;2023-02-01T16:04:26;5.00;99.90